Strona główna
METAR-TAF:

METAR-TAF

Lotnisko :

Wellsville Municipal Airport (Tarantine Field)

Wellsville, Nowy Jork, Stany Zjednoczone

Szerokość geograficzna: 42-06-27N, Długość geograficzna: 077-59-04W, wysokość: 647 m

Aktualna obserwacja pogody

Raport powstał 18 minut temu, godzina 10:03 UTC
Wiatr 14 kt od zachód w porywach dochodzący do 23 kt
Temperatura -9°C
Wilgotność 67%
Ciśnienie 1005 hPa
Widzialność: 8.0 km
Zachmurzenie całkowite na wysokości 3000 ft
słaby śnieg

METAR: KELZ 281003Z AUTO 26014G23KT 5SM -SN OVC030 M09/M14 A2967 RMK AO2 P0000 T10941139

czas: 05:21 (10:21 UTC)


TAF: brakujący

Obserwacja i prognoza pogody dla ponad 4000 lotnisk (raport METAR i TAF).

Dostępne stacje oznaczono żółtymi i czerwonymi punktami na mapie.

Najedź kursorem aby zobaczyć nazwę stacji.

Kliknij aby zobaczyć obserwacje i prognozy pogody.

Aby zmienić mapę: kliknij na zielony przycisk z czarnym krzyżykiem, aby powiększyć; na zielony przycisk z myślnikiem, aby pomniejszyć; na zielone strzałki, aby przejść do map sąsiednich.


METAR-TAF: